Time,TemperatureF,DewpointF,PressureIn,WindDirection,WindDirectionDegrees,WindSpeedMPH,WindSpeedGustMPH,Humidity,HourlyPrecipIn,Conditions,Clouds,dailyrainin,SoftwareType,DateUTC
2013-01-06 00:10:00,14.4,7.3,30.32,North,0,0.2,0.2,73,0.00,,,0.00,WUHU216HW,2013-01-06 05:10:00,
2013-01-06 00:25:00,14.2,7.1,30.32,NW,315,0.6,1.1,73,0.00,,,0.00,WUHU216HW,2013-01-06 05:25:00,
2013-01-06 00:40:00,14.2,7.5,30.31,NW,315,0.3,0.4,74,0.00,,,0.00,WUHU216HW,2013-01-06 05:40:00,
2013-01-06 00:56:00,14.0,7.6,30.30,NW,312,1.1,1.6,75,0.00,,,0.00,WUHU216HW,2013-01-06 05:56:00,
2013-01-06 01:11:00,14.0,7.6,30.31,WNW,303,0.6,1.6,75,0.00,,,0.00,WUHU216HW,2013-01-06 06:11:00,
2013-01-06 01:26:00,14.0,7.6,30.29,WNW,288,0.3,1.1,75,0.00,,,0.00,WUHU216HW,2013-01-06 06:26:00,
2013-01-06 01:41:00,14.0,7.8,30.30,WSW,256,0.6,1.1,76,0.00,,,0.00,WUHU216HW,2013-01-06 06:41:00,
2013-01-06 01:56:00,14.0,7.8,30.30,WNW,294,0.8,1.8,76,0.00,,,0.00,WUHU216HW,2013-01-06 06:56:00,
2013-01-06 02:11:00,14.4,8.2,30.29,NNW,327,0.5,1.1,76,0.00,,,0.00,WUHU216HW,2013-01-06 07:11:00,
2013-01-06 02:26:00,14.4,8.2,30.30,West,274,0.9,2.2,76,0.00,,,0.00,WUHU216HW,2013-01-06 07:26:00,
2013-01-06 02:41:00,14.8,8.6,30.30,WNW,298,0.3,0.4,76,0.00,,,0.00,WUHU216HW,2013-01-06 07:41:00,
2013-01-06 02:56:00,15.1,8.9,30.28,NW,316,0.8,1.6,76,0.00,,,0.00,WUHU216HW,2013-01-06 07:56:00,
2013-01-06 03:11:00,15.3,9.1,30.27,NW,326,0.4,0.4,76,0.00,,,0.00,WUHU216HW,2013-01-06 08:11:00,
2013-01-06 03:26:00,15.5,9.3,30.26,NW,310,0.6,1.3,76,0.00,,,0.00,WUHU216HW,2013-01-06 08:26:00,
2013-01-06 03:41:00,15.5,9.3,30.26,SSE,161,0.3,0.4,76,0.00,,,0.00,WUHU216HW,2013-01-06 08:41:00,
2013-01-06 03:56:00,15.7,9.4,30.26,NW,310,0.5,1.3,76,0.00,,,0.00,WUHU216HW,2013-01-06 08:56:00,
2013-01-06 04:11:00,16.0,9.7,30.26,NW,312,0.6,1.3,76,0.00,,,0.00,WUHU216HW,2013-01-06 09:11:00,
2013-01-06 04:26:00,16.0,9.7,30.25,WNW,298,0.3,0.7,76,0.00,,,0.00,WUHU216HW,2013-01-06 09:26:00,
2013-01-06 04:41:00,16.2,9.9,30.25,WNW,296,1.2,2.2,76,0.00,,,0.00,WUHU216HW,2013-01-06 09:41:00,
2013-01-06 04:56:00,16.2,10.3,30.22,WNW,295,0.6,1.6,77,0.00,,,0.00,WUHU216HW,2013-01-06 09:56:00,
2013-01-06 05:11:00,16.6,10.9,30.22,WNW,296,0.7,1.6,78,0.00,,,0.00,WUHU216HW,2013-01-06 10:11:00,
2013-01-06 05:26:00,16.7,10.7,30.21,NNW,338,0.3,0.4,77,0.00,,,0.00,WUHU216HW,2013-01-06 10:26:00,
2013-01-06 05:41:00,16.9,10.9,30.22,North,0,0.0,0.0,77,0.00,,,0.00,WUHU216HW,2013-01-06 10:41:00,
2013-01-06 05:56:00,16.9,10.9,30.20,WNW,293,0.7,1.1,77,0.00,,,0.00,WUHU216HW,2013-01-06 10:56:00,
2013-01-06 06:11:00,17.1,10.8,30.20,North,0,0.0,0.0,76,0.00,,,0.00,WUHU216HW,2013-01-06 11:11:00,
2013-01-06 06:26:00,17.1,11.1,30.19,North,0,0.0,0.0,77,0.00,,,0.00,WUHU216HW,2013-01-06 11:26:00,
2013-01-06 06:41:00,17.5,11.4,30.20,NW,315,0.5,1.1,77,0.00,,,0.00,WUHU216HW,2013-01-06 11:41:00,
2013-01-06 06:56:00,17.5,11.4,30.19,WNW,293,0.2,0.2,77,0.00,,,0.00,WUHU216HW,2013-01-06 11:56:00,
2013-01-06 07:11:00,17.5,11.4,30.17,North,0,0.0,0.0,77,0.00,,,0.00,WUHU216HW,2013-01-06 12:11:00,
2013-01-06 07:26:00,17.5,11.7,30.17,North,0,0.0,0.0,78,0.00,,,0.00,WUHU216HW,2013-01-06 12:26:00,
2013-01-06 07:41:00,17.5,11.7,30.17,NNW,338,0.4,0.4,78,0.00,,,0.00,WUHU216HW,2013-01-06 12:41:00,
2013-01-06 07:56:00,17.6,11.9,30.15,NW,315,0.2,0.2,78,0.00,,,0.00,WUHU216HW,2013-01-06 12:56:00,
2013-01-06 08:11:00,17.8,12.1,30.15,NW,311,0.4,0.7,78,0.00,,,0.00,WUHU216HW,2013-01-06 13:11:00,
2013-01-06 08:26:00,18.0,12.5,30.15,North,0,0.0,0.0,79,0.00,,,0.00,WUHU216HW,2013-01-06 13:26:00,
2013-01-06 08:41:00,18.4,12.9,30.15,ENE,68,0.2,0.2,79,0.00,,,0.00,WUHU216HW,2013-01-06 13:41:00,
2013-01-06 08:56:00,19.6,14.1,30.14,ESE,118,0.4,0.7,79,0.00,,,0.00,WUHU216HW,2013-01-06 13:56:00,
2013-01-06 09:11:00,20.5,14.7,30.14,SE,144,0.5,1.6,78,0.00,,,0.00,WUHU216HW,2013-01-06 14:11:00,
2013-01-06 09:26:00,21.2,15.4,30.13,SE,124,0.4,0.9,78,0.00,,,0.00,WUHU216HW,2013-01-06 14:26:00,
2013-01-06 09:41:00,23.4,17.6,30.13,SSW,202,0.6,1.6,78,0.00,,,0.00,WUHU216HW,2013-01-06 14:41:00,
2013-01-06 09:56:00,24.8,18.6,30.13,SSE,164,1.1,2.2,77,0.00,,,0.00,WUHU216HW,2013-01-06 14:56:00,
2013-01-06 10:11:00,25.6,19.0,30.12,SSW,198,0.8,2.5,76,0.00,,,0.00,WUHU216HW,2013-01-06 15:11:00,
2013-01-06 10:26:00,25.9,19.0,30.11,SW,218,1.0,2.5,75,0.00,,,0.00,WUHU216HW,2013-01-06 15:26:00,
2013-01-06 10:41:00,26.6,19.5,30.10,SW,230,1.1,2.9,74,0.00,,,0.00,WUHU216HW,2013-01-06 15:41:00,
2013-01-06 10:56:00,26.8,19.0,30.09,WSW,245,1.2,3.1,72,0.00,,,0.00,WUHU216HW,2013-01-06 15:56:00,
2013-01-06 11:11:00,27.0,19.4,30.08,WNW,301,1.8,5.6,73,0.00,,,0.00,WUHU216HW,2013-01-06 16:11:00,
2013-01-06 11:26:00,27.4,19.8,30.07,WNW,282,1.2,3.4,73,0.00,,,0.00,WUHU216HW,2013-01-06 16:26:00,
2013-01-06 11:41:00,27.9,20.7,30.07,West,269,1.0,4.7,74,0.00,,,0.00,WUHU216HW,2013-01-06 16:41:00,
2013-01-06 11:56:00,28.3,21.1,30.06,WNW,301,1.2,3.6,74,0.00,,,0.00,WUHU216HW,2013-01-06 16:56:00,
2013-01-06 12:11:00,28.8,21.3,30.06,SW,233,0.7,2.0,73,0.00,,,0.00,WUHU216HW,2013-01-06 17:11:00,
2013-01-06 12:26:00,29.0,21.7,30.05,WSW,247,0.6,1.1,74,0.00,,,0.00,WUHU216HW,2013-01-06 17:26:00,
2013-01-06 12:41:00,29.5,21.9,30.05,East,89,0.7,1.3,73,0.00,,,0.00,WUHU216HW,2013-01-06 17:41:00,
2013-01-06 12:56:00,29.9,22.2,30.04,ESE,119,0.5,1.1,73,0.00,,,0.00,WUHU216HW,2013-01-06 17:56:00,
2013-01-06 13:11:00,29.9,22.2,30.04,East,86,0.4,1.1,73,0.00,,,0.00,WUHU216HW,2013-01-06 18:11:00,
2013-01-06 13:26:00,30.1,22.1,30.04,East,90,0.4,0.4,72,0.00,,,0.00,WUHU216HW,2013-01-06 18:26:00,
2013-01-06 13:41:00,30.2,22.2,30.04,ESE,115,0.4,0.7,72,0.00,,,0.00,WUHU216HW,2013-01-06 18:41:00,
2013-01-06 13:56:00,30.4,22.4,30.04,East,90,0.5,0.7,72,0.00,,,0.00,WUHU216HW,2013-01-06 18:56:00,
2013-01-06 14:11:00,30.6,22.6,30.03,North,0,0.0,0.0,72,0.00,,,0.00,WUHU216HW,2013-01-06 19:11:00,
2013-01-06 14:26:00,31.1,23.1,30.03,ENE,76,0.4,1.1,72,0.00,,,0.00,WUHU216HW,2013-01-06 19:26:00,
2013-01-06 14:41:00,32.0,24.0,30.03,ESE,122,0.6,1.3,72,0.00,,,0.00,WUHU216HW,2013-01-06 19:41:00,
2013-01-06 14:56:00,32.4,24.0,30.03,SE,137,0.5,1.1,71,0.00,,,0.00,WUHU216HW,2013-01-06 19:56:00,
2013-01-06 15:11:00,32.4,24.0,30.03,SW,219,0.5,0.7,71,0.00,,,0.00,WUHU216HW,2013-01-06 20:11:00,
2013-01-06 15:26:00,32.4,24.0,30.03,South,189,0.3,0.4,71,0.00,,,0.00,WUHU216HW,2013-01-06 20:26:00,
2013-01-06 15:41:00,32.4,24.0,30.02,North,0,0.0,0.0,71,0.00,,,0.00,WUHU216HW,2013-01-06 20:41:00,
2013-01-06 15:56:00,32.0,24.0,30.02,WSW,248,0.2,0.2,72,0.00,,,0.00,WUHU216HW,2013-01-06 20:56:00,
2013-01-06 16:11:00,32.0,24.4,30.02,West,270,0.6,1.1,73,0.00,,,0.00,WUHU216HW,2013-01-06 21:11:00,
2013-01-06 16:26:00,31.7,24.0,30.02,West,270,0.7,1.1,73,0.00,,,0.00,WUHU216HW,2013-01-06 21:26:00,
2013-01-06 16:41:00,31.3,23.9,30.02,West,270,0.2,0.2,74,0.00,,,0.00,WUHU216HW,2013-01-06 21:41:00,
2013-01-06 16:56:00,31.0,23.9,30.02,North,0,0.0,0.0,75,0.00,,,0.00,WUHU216HW,2013-01-06 21:56:00,
2013-01-06 17:11:00,30.6,23.6,30.03,WNW,293,1.0,1.6,75,0.00,,,0.00,WUHU216HW,2013-01-06 22:11:00,
2013-01-06 17:26:00,30.2,23.6,30.03,WNW,300,0.8,1.3,76,0.00,,,0.00,WUHU216HW,2013-01-06 22:26:00,
2013-01-06 17:41:00,29.9,22.9,30.03,North,0,0.0,0.0,75,0.00,,,0.00,WUHU216HW,2013-01-06 22:41:00,
2013-01-06 17:56:00,29.3,22.4,30.03,NW,315,0.4,0.7,75,0.00,,,0.00,WUHU216HW,2013-01-06 22:56:00,
2013-01-06 18:11:00,29.2,22.5,30.03,NW,315,0.2,0.2,76,0.00,,,0.00,WUHU216HW,2013-01-06 23:11:00,
2013-01-06 18:26:00,28.8,22.5,30.04,NW,315,0.4,0.4,77,0.00,,,0.00,WUHU216HW,2013-01-06 23:26:00,
2013-01-06 18:41:00,28.4,22.2,30.04,NW,315,0.4,0.4,77,0.00,,,0.00,WUHU216HW,2013-01-06 23:41:00,
2013-01-06 18:56:00,28.3,22.2,30.05,North,0,0.0,0.0,78,0.00,,,0.00,WUHU216HW,2013-01-06 23:56:00,
2013-01-06 19:11:00,27.9,21.9,30.04,North,0,0.0,0.0,78,0.00,,,0.00,WUHU216HW,2013-01-07 00:11:00,
2013-01-06 19:26:00,27.7,22.1,30.05,North,0,0.0,0.0,79,0.00,,,0.00,WUHU216HW,2013-01-07 00:26:00,
2013-01-06 19:41:00,27.4,21.7,30.05,North,0,0.0,0.0,79,0.00,,,0.00,WUHU216HW,2013-01-07 00:41:00,
2013-01-06 19:56:00,27.2,21.8,30.05,North,0,0.0,0.0,80,0.00,,,0.00,WUHU216HW,2013-01-07 00:56:00,
2013-01-06 20:11:00,27.0,21.6,30.04,North,0,0.0,0.0,80,0.00,,,0.00,WUHU216HW,2013-01-07 01:11:00,
2013-01-06 20:26:00,27.0,21.9,30.05,North,0,0.0,0.0,81,0.00,,,0.00,WUHU216HW,2013-01-07 01:26:00,
2013-01-06 20:41:00,27.0,21.9,30.04,North,0,0.0,0.0,81,0.00,,,0.00,WUHU216HW,2013-01-07 01:41:00,
2013-01-06 20:56:00,26.6,21.8,30.04,North,0,0.0,0.0,82,0.00,,,0.00,WUHU216HW,2013-01-07 01:56:00,
2013-01-06 21:11:00,26.5,22.0,30.04,North,0,0.0,0.0,83,0.00,,,0.00,WUHU216HW,2013-01-07 02:11:00,
2013-01-06 21:26:00,26.5,22.0,30.04,North,0,0.0,0.0,83,0.00,,,0.00,WUHU216HW,2013-01-07 02:26:00,
2013-01-06 21:41:00,26.3,21.8,30.04,North,0,0.0,0.0,83,0.00,,,0.00,WUHU216HW,2013-01-07 02:41:00,
2013-01-06 21:56:00,26.3,21.8,30.04,North,0,0.0,0.0,83,0.00,,,0.00,WUHU216HW,2013-01-07 02:56:00,
2013-01-06 22:11:00,26.1,21.3,30.04,North,0,0.0,0.0,82,0.00,,,0.00,WUHU216HW,2013-01-07 03:11:00,
2013-01-06 22:26:00,25.9,21.2,30.04,North,0,0.0,0.0,82,0.00,,,0.00,WUHU216HW,2013-01-07 03:26:00,
2013-01-06 22:41:00,25.6,20.8,30.04,North,0,0.0,0.0,82,0.00,,,0.00,WUHU216HW,2013-01-07 03:41:00,
2013-01-06 22:56:00,25.4,21.0,30.04,North,0,0.0,0.0,83,0.00,,,0.00,WUHU216HW,2013-01-07 03:56:00,
2013-01-06 23:12:00,25.4,21.0,30.04,North,0,0.0,0.0,83,0.00,,,0.00,WUHU216HW,2013-01-07 04:12:00,
2013-01-06 23:27:00,25.2,21.1,30.04,North,0,0.0,0.0,84,0.00,,,0.00,WUHU216HW,2013-01-07 04:27:00,
2013-01-06 23:42:00,25.4,21.3,30.04,North,0,0.0,0.0,84,0.00,,,0.00,WUHU216HW,2013-01-07 04:42:00,
2013-01-06 23:57:00,25.6,21.7,30.04,North,0,0.0,0.0,85,0.00,,,0.00,WUHU216HW,2013-01-07 04:57:00,